CEB1C RPLL-RPVM
Flight info
| Callsign | CEB1C |
|---|---|
| Flight time | 1h 1m |
| Altitude | 35000 |
| Route | IPATA2R IPATA W25 BATAY BATAY3P |
| Aircraft | A339/H-SADE1E2E3GHIJ3J5M1P2RWXY/LB2D1 |
Departure
| Time | 2026-05-05 14:00 |
|---|---|
| Airport | Ninoy Aquino International Airport (RPLL) |
Arrival
| Time | 2026-05-05 15:01 |
|---|---|
| Airport | Mactan Cebu International Airport (RPVM) |
| Time | Latitude | Longitude | Altitude | Speed | Heading |
|---|---|---|---|---|---|
| 2026-05-05 13:21 | 14.51564 | 121.01611 | 90 ft | 0 kts | 44° |
| 2026-05-05 13:36 | 14.51552 | 121.01600 | 90 ft | 2 kts | 44° |
| 2026-05-05 13:36 | 14.51538 | 121.01586 | 90 ft | 2 kts | 44° |
| 2026-05-05 13:37 | 14.51525 | 121.01570 | 90 ft | 2 kts | 65° |
| 2026-05-05 13:37 | 14.51520 | 121.01553 | 90 ft | 2 kts | 83° |
| 2026-05-05 13:37 | 14.51520 | 121.01538 | 90 ft | 2 kts | 99° |
| 2026-05-05 13:37 | 14.51524 | 121.01521 | 90 ft | 2 kts | 117° |
| 2026-05-05 13:38 | 14.51533 | 121.01508 | 90 ft | 1 kts | 133° |
| 2026-05-05 13:38 | 14.51537 | 121.01505 | 90 ft | 0 kts | 135° |
| 2026-05-05 13:46 | 14.51535 | 121.01506 | 90 ft | 1 kts | 135° |
| 2026-05-05 13:46 | 14.51471 | 121.01573 | 90 ft | 9 kts | 134° |
| 2026-05-05 13:46 | 14.51416 | 121.01630 | 90 ft | 10 kts | 134° |
| 2026-05-05 13:46 | 14.51363 | 121.01685 | 90 ft | 8 kts | 135° |
| 2026-05-05 13:47 | 14.51351 | 121.01698 | 90 ft | 0 kts | 135° |
| 2026-05-05 13:48 | 14.51334 | 121.01716 | 90 ft | 7 kts | 135° |
| 2026-05-05 13:48 | 14.51283 | 121.01769 | 90 ft | 12 kts | 135° |
| 2026-05-05 13:48 | 14.51223 | 121.01831 | 90 ft | 13 kts | 134° |
| 2026-05-05 13:48 | 14.51163 | 121.01893 | 90 ft | 0 kts | 136° |
| 2026-05-05 13:49 | 14.51139 | 121.01917 | 90 ft | 7 kts | 135° |
| 2026-05-05 13:49 | 14.51106 | 121.01952 | 90 ft | 6 kts | 134° |
| 2026-05-05 13:49 | 14.51084 | 121.01975 | 90 ft | 3 kts | 134° |
| 2026-05-05 13:49 | 14.51082 | 121.01977 | 90 ft | 0 kts | 135° |
| 2026-05-05 13:52 | 14.51077 | 121.01982 | 90 ft | 4 kts | 141° |
| 2026-05-05 13:52 | 14.51034 | 121.01968 | 90 ft | 11 kts | 227° |
| 2026-05-05 13:52 | 14.50973 | 121.01868 | 90 ft | 19 kts | 240° |
| 2026-05-05 13:53 | 14.50905 | 121.01746 | 90 ft | 19 kts | 240° |
| 2026-05-05 13:53 | 14.50840 | 121.01628 | 90 ft | 18 kts | 240° |
| 2026-05-05 13:53 | 14.50777 | 121.01515 | 90 ft | 18 kts | 240° |
| 2026-05-05 13:53 | 14.50715 | 121.01403 | 90 ft | 18 kts | 241° |
| 2026-05-05 13:54 | 14.50648 | 121.01283 | 90 ft | 20 kts | 240° |
| 2026-05-05 13:54 | 14.50573 | 121.01148 | 90 ft | 22 kts | 240° |
| 2026-05-05 13:54 | 14.50494 | 121.01006 | 90 ft | 23 kts | 240° |
| 2026-05-05 13:54 | 14.50411 | 121.00857 | 90 ft | 21 kts | 240° |
| 2026-05-05 13:55 | 14.50338 | 121.00724 | 90 ft | 21 kts | 240° |
| 2026-05-05 13:55 | 14.50263 | 121.00589 | 90 ft | 21 kts | 240° |
| 2026-05-05 13:55 | 14.50186 | 121.00450 | 90 ft | 22 kts | 240° |
| 2026-05-05 13:55 | 14.50110 | 121.00314 | 90 ft | 21 kts | 240° |
| 2026-05-05 13:56 | 14.50034 | 121.00176 | 90 ft | 22 kts | 240° |
| 2026-05-05 13:56 | 14.49969 | 121.00060 | 90 ft | 13 kts | 240° |
| 2026-05-05 13:56 | 14.49931 | 120.99991 | 90 ft | 10 kts | 239° |
| 2026-05-05 13:56 | 14.49894 | 120.99969 | 90 ft | 0 kts | 177° |
| 2026-05-05 13:57 | 14.49893 | 120.99969 | 90 ft | 0 kts | 177° |
| 2026-05-05 13:57 | 14.49856 | 120.99978 | 90 ft | 10 kts | 159° |
| 2026-05-05 13:57 | 14.49817 | 121.00007 | 90 ft | 10 kts | 121° |
| 2026-05-05 13:58 | 14.49824 | 121.00082 | 90 ft | 10 kts | 64° |
| 2026-05-05 13:58 | 14.49839 | 121.00111 | 90 ft | 0 kts | 60° |
| 2026-05-05 13:59 | 14.49843 | 121.00118 | 90 ft | 6 kts | 60° |
| 2026-05-05 13:59 | 14.49966 | 121.00341 | 90 ft | 69 kts | 60° |
| 2026-05-05 14:00 | 14.50836 | 121.01910 | 221 ft | 165 kts | 63° |
| 2026-05-05 14:00 | 14.51207 | 121.02592 | 596 ft | 164 kts | 61° |
| 2026-05-05 14:00 | 14.51958 | 121.03946 | 1440 ft | 163 kts | 61° |
| 2026-05-05 14:00 | 14.52508 | 121.04938 | 1991 ft | 162 kts | 61° |
| 2026-05-05 14:01 | 14.53095 | 121.05996 | 2270 ft | 177 kts | 61° |
| 2026-05-05 14:01 | 14.53735 | 121.07148 | 2551 ft | 192 kts | 61° |
| 2026-05-05 14:01 | 14.54423 | 121.08388 | 2860 ft | 207 kts | 61° |
| 2026-05-05 14:01 | 14.54919 | 121.09283 | 3060 ft | 218 kts | 61° |
| 2026-05-05 14:02 | 14.55690 | 121.10671 | 3381 ft | 236 kts | 61° |
| 2026-05-05 14:02 | 14.56247 | 121.11676 | 3607 ft | 248 kts | 61° |
| 2026-05-05 14:02 | 14.57562 | 121.16148 | 5030 ft | 268 kts | 82° |
| 2026-05-05 14:03 | 14.57774 | 121.18058 | 5769 ft | 270 kts | 83° |
| 2026-05-05 14:03 | 14.57984 | 121.20015 | 6512 ft | 273 kts | 83° |
| 2026-05-05 14:03 | 14.58199 | 121.21954 | 7245 ft | 276 kts | 83° |
| 2026-05-05 14:03 | 14.58413 | 121.23927 | 7979 ft | 277 kts | 86° |
| 2026-05-05 14:04 | 14.58138 | 121.25890 | 8646 ft | 282 kts | 112° |
| 2026-05-05 14:04 | 14.57013 | 121.27554 | 9341 ft | 287 kts | 136° |
| 2026-05-05 14:04 | 14.55415 | 121.28805 | 10034 ft | 289 kts | 142° |
| 2026-05-05 14:04 | 14.53781 | 121.30036 | 10550 ft | 299 kts | 142° |
| 2026-05-05 14:05 | 14.52045 | 121.31351 | 10852 ft | 316 kts | 142° |
| 2026-05-05 14:05 | 14.50235 | 121.32729 | 11301 ft | 326 kts | 142° |
| 2026-05-05 14:05 | 14.48385 | 121.34141 | 11939 ft | 330 kts | 142° |
| 2026-05-05 14:05 | 14.46533 | 121.35556 | 12573 ft | 333 kts | 142° |
| 2026-05-05 14:06 | 14.44655 | 121.36993 | 13180 ft | 336 kts | 142° |
| 2026-05-05 14:06 | 14.42772 | 121.38436 | 13778 ft | 339 kts | 142° |
| 2026-05-05 14:06 | 14.40862 | 121.39900 | 14363 ft | 343 kts | 142° |
| 2026-05-05 14:06 | 14.38937 | 121.41376 | 14934 ft | 346 kts | 142° |
| 2026-05-05 14:07 | 14.36996 | 121.42863 | 15500 ft | 349 kts | 142° |
| 2026-05-05 14:07 | 14.35038 | 121.44363 | 16064 ft | 352 kts | 142° |
| 2026-05-05 14:07 | 14.33039 | 121.45896 | 16621 ft | 355 kts | 142° |
| 2026-05-05 14:07 | 14.31056 | 121.47417 | 17142 ft | 359 kts | 142° |
| 2026-05-05 14:08 | 14.29055 | 121.48948 | 17677 ft | 361 kts | 142° |
| 2026-05-05 14:08 | 14.27028 | 121.50497 | 18241 ft | 364 kts | 142° |
| 2026-05-05 14:08 | 14.24965 | 121.52068 | 18795 ft | 366 kts | 143° |
| 2026-05-05 14:08 | 14.22907 | 121.53635 | 19323 ft | 369 kts | 143° |
| 2026-05-05 14:09 | 14.20847 | 121.55203 | 19842 ft | 372 kts | 143° |
| 2026-05-05 14:09 | 14.18773 | 121.56782 | 20350 ft | 375 kts | 143° |
| 2026-05-05 14:09 | 14.16658 | 121.58393 | 20862 ft | 377 kts | 143° |
| 2026-05-05 14:09 | 14.14540 | 121.60008 | 21362 ft | 379 kts | 143° |
| 2026-05-05 14:10 | 14.12481 | 121.61576 | 21831 ft | 382 kts | 143° |
| 2026-05-05 14:10 | 14.10313 | 121.63227 | 22318 ft | 384 kts | 143° |
| 2026-05-05 14:10 | 14.08184 | 121.64848 | 22791 ft | 387 kts | 143° |
| 2026-05-05 14:10 | 14.05994 | 121.66515 | 23262 ft | 389 kts | 143° |
| 2026-05-05 14:11 | 14.03818 | 121.68173 | 23704 ft | 392 kts | 143° |
| 2026-05-05 14:11 | 14.01608 | 121.69858 | 24132 ft | 396 kts | 143° |
| 2026-05-05 14:11 | 13.99372 | 121.71564 | 24564 ft | 399 kts | 143° |
| 2026-05-05 14:11 | 13.97146 | 121.73263 | 24983 ft | 402 kts | 143° |
| 2026-05-05 14:12 | 13.94866 | 121.75003 | 25414 ft | 405 kts | 143° |
| 2026-05-05 14:12 | 13.92591 | 121.76740 | 25824 ft | 408 kts | 144° |
| 2026-05-05 14:12 | 13.90319 | 121.78472 | 26224 ft | 411 kts | 144° |
| 2026-05-05 14:12 | 13.88009 | 121.80231 | 26619 ft | 414 kts | 144° |
| 2026-05-05 14:13 | 13.85660 | 121.82017 | 27019 ft | 416 kts | 144° |
| 2026-05-05 14:13 | 13.83311 | 121.83786 | 27414 ft | 419 kts | 144° |
| 2026-05-05 14:13 | 13.80950 | 121.85562 | 27805 ft | 421 kts | 144° |
| 2026-05-05 14:13 | 13.78568 | 121.87354 | 28198 ft | 424 kts | 144° |
| 2026-05-05 14:14 | 13.76151 | 121.89175 | 28587 ft | 426 kts | 144° |
| 2026-05-05 14:14 | 13.73767 | 121.90970 | 28969 ft | 429 kts | 144° |
| 2026-05-05 14:14 | 13.71354 | 121.92790 | 29344 ft | 432 kts | 144° |
| 2026-05-05 14:14 | 13.68908 | 121.94633 | 29696 ft | 434 kts | 144° |
| 2026-05-05 14:15 | 13.66459 | 121.96479 | 30036 ft | 438 kts | 144° |
| 2026-05-05 14:15 | 13.63977 | 121.98350 | 30379 ft | 440 kts | 144° |
| 2026-05-05 14:15 | 13.61506 | 122.00211 | 30715 ft | 443 kts | 145° |
| 2026-05-05 14:15 | 13.58976 | 122.02115 | 31056 ft | 446 kts | 145° |
| 2026-05-05 14:16 | 13.56479 | 122.03996 | 31389 ft | 448 kts | 145° |
| 2026-05-05 14:16 | 13.53943 | 122.05904 | 31721 ft | 451 kts | 145° |
| 2026-05-05 14:16 | 13.51420 | 122.07803 | 32033 ft | 454 kts | 145° |
| 2026-05-05 14:16 | 13.48845 | 122.09741 | 32352 ft | 456 kts | 145° |
| 2026-05-05 14:17 | 13.46306 | 122.11650 | 32669 ft | 459 kts | 145° |
| 2026-05-05 14:17 | 13.43693 | 122.13615 | 33046 ft | 460 kts | 145° |
| 2026-05-05 14:17 | 13.41106 | 122.15559 | 33518 ft | 460 kts | 145° |
| 2026-05-05 14:17 | 13.38522 | 122.17500 | 33960 ft | 460 kts | 145° |
| 2026-05-05 14:18 | 13.35937 | 122.19443 | 34340 ft | 462 kts | 145° |
| 2026-05-05 14:18 | 13.33361 | 122.21350 | 34716 ft | 462 kts | 144° |
| 2026-05-05 14:18 | 13.30720 | 122.23328 | 34893 ft | 466 kts | 144° |
| 2026-05-05 14:18 | 13.28111 | 122.25304 | 34890 ft | 466 kts | 144° |
| 2026-05-05 14:19 | 13.22818 | 122.29310 | 34886 ft | 467 kts | 144° |
| 2026-05-05 14:19 | 13.17562 | 122.33267 | 34885 ft | 467 kts | 144° |
| 2026-05-05 14:20 | 13.12298 | 122.37218 | 34894 ft | 466 kts | 144° |
| 2026-05-05 14:20 | 13.07072 | 122.41134 | 34897 ft | 466 kts | 144° |
| 2026-05-05 14:21 | 13.01830 | 122.45060 | 34900 ft | 466 kts | 144° |
| 2026-05-05 14:21 | 12.96581 | 122.48989 | 34900 ft | 466 kts | 144° |
| 2026-05-05 14:22 | 12.91315 | 122.52929 | 34901 ft | 466 kts | 144° |
| 2026-05-05 14:22 | 12.86059 | 122.56860 | 34901 ft | 466 kts | 144° |
| 2026-05-05 14:23 | 12.80795 | 122.60794 | 34900 ft | 466 kts | 144° |
| 2026-05-05 14:23 | 12.75533 | 122.64724 | 34895 ft | 466 kts | 144° |
| 2026-05-05 14:24 | 12.70269 | 122.68653 | 34886 ft | 466 kts | 145° |
| 2026-05-05 14:24 | 12.65033 | 122.72560 | 34882 ft | 465 kts | 144° |
| 2026-05-05 14:25 | 12.59761 | 122.76491 | 34881 ft | 465 kts | 144° |
| 2026-05-05 14:25 | 12.54499 | 122.80415 | 34881 ft | 465 kts | 144° |
| 2026-05-05 14:26 | 12.49246 | 122.84331 | 34881 ft | 464 kts | 144° |
| 2026-05-05 14:26 | 12.44015 | 122.88228 | 34881 ft | 464 kts | 145° |
| 2026-05-05 14:27 | 12.38796 | 122.92114 | 34881 ft | 464 kts | 145° |
| 2026-05-05 14:27 | 12.33539 | 122.96024 | 34881 ft | 464 kts | 144° |
| 2026-05-05 14:28 | 12.28308 | 122.99910 | 34881 ft | 464 kts | 145° |
| 2026-05-05 14:28 | 12.23044 | 123.03816 | 34876 ft | 464 kts | 145° |
| 2026-05-05 14:29 | 12.20420 | 123.05764 | 34425 ft | 468 kts | 144° |
| 2026-05-05 14:29 | 12.17778 | 123.07725 | 33633 ft | 471 kts | 144° |
| 2026-05-05 14:29 | 12.15152 | 123.09674 | 32994 ft | 470 kts | 144° |
| 2026-05-05 14:29 | 12.12484 | 123.11655 | 32439 ft | 467 kts | 144° |
| 2026-05-05 14:30 | 12.09889 | 123.13581 | 32089 ft | 461 kts | 144° |
| 2026-05-05 14:30 | 12.07298 | 123.15504 | 31762 ft | 454 kts | 144° |
| 2026-05-05 14:30 | 12.04731 | 123.17406 | 31396 ft | 449 kts | 144° |
| 2026-05-05 14:30 | 12.02221 | 123.19267 | 31020 ft | 445 kts | 144° |
| 2026-05-05 14:31 | 11.99703 | 123.21134 | 30635 ft | 440 kts | 144° |
| 2026-05-05 14:31 | 11.97227 | 123.22969 | 30248 ft | 437 kts | 144° |
| 2026-05-05 14:31 | 11.94784 | 123.24779 | 29873 ft | 433 kts | 144° |
| 2026-05-05 14:31 | 11.92345 | 123.26586 | 29505 ft | 429 kts | 144° |
| 2026-05-05 14:32 | 11.89943 | 123.28365 | 29141 ft | 425 kts | 144° |
| 2026-05-05 14:32 | 11.87557 | 123.30132 | 28781 ft | 421 kts | 144° |
| 2026-05-05 14:32 | 11.85161 | 123.31906 | 28415 ft | 417 kts | 144° |
| 2026-05-05 14:32 | 11.82848 | 123.33619 | 28055 ft | 414 kts | 144° |
| 2026-05-05 14:33 | 11.80481 | 123.35371 | 27683 ft | 411 kts | 144° |
| 2026-05-05 14:33 | 11.78179 | 123.37074 | 27320 ft | 408 kts | 144° |
| 2026-05-05 14:33 | 11.75866 | 123.38786 | 26955 ft | 405 kts | 143° |
| 2026-05-05 14:33 | 11.73591 | 123.40468 | 26596 ft | 402 kts | 143° |
| 2026-05-05 14:34 | 11.71331 | 123.42139 | 26241 ft | 399 kts | 143° |
| 2026-05-05 14:34 | 11.69093 | 123.43793 | 25891 ft | 396 kts | 143° |
| 2026-05-05 14:34 | 11.66930 | 123.45391 | 25556 ft | 393 kts | 143° |
| 2026-05-05 14:34 | 11.64735 | 123.47014 | 25223 ft | 390 kts | 143° |
| 2026-05-05 14:35 | 11.62530 | 123.48644 | 24886 ft | 387 kts | 143° |
| 2026-05-05 14:35 | 11.60347 | 123.50256 | 24543 ft | 384 kts | 143° |
| 2026-05-05 14:35 | 11.58170 | 123.51864 | 24206 ft | 381 kts | 143° |
| 2026-05-05 14:35 | 11.56029 | 123.53445 | 23875 ft | 378 kts | 143° |
| 2026-05-05 14:36 | 11.53901 | 123.55017 | 23543 ft | 375 kts | 143° |
| 2026-05-05 14:36 | 11.51758 | 123.56600 | 23215 ft | 372 kts | 143° |
| 2026-05-05 14:36 | 11.49662 | 123.58147 | 22888 ft | 370 kts | 143° |
| 2026-05-05 14:36 | 11.47585 | 123.59679 | 22553 ft | 367 kts | 142° |
| 2026-05-05 14:37 | 11.45512 | 123.61208 | 22212 ft | 365 kts | 142° |
| 2026-05-05 14:37 | 11.43438 | 123.62737 | 21879 ft | 363 kts | 142° |
| 2026-05-05 14:37 | 11.41395 | 123.64244 | 21534 ft | 362 kts | 142° |
| 2026-05-05 14:37 | 11.39329 | 123.65768 | 21183 ft | 361 kts | 142° |
| 2026-05-05 14:38 | 11.37279 | 123.67281 | 20828 ft | 359 kts | 142° |
| 2026-05-05 14:38 | 11.35261 | 123.68768 | 20452 ft | 356 kts | 142° |
| 2026-05-05 14:38 | 11.33233 | 123.70264 | 20109 ft | 350 kts | 142° |
| 2026-05-05 14:38 | 11.31283 | 123.71700 | 19777 ft | 346 kts | 142° |
| 2026-05-05 14:39 | 11.29346 | 123.73128 | 19442 ft | 343 kts | 142° |
| 2026-05-05 14:39 | 11.27393 | 123.74568 | 19085 ft | 344 kts | 142° |
| 2026-05-05 14:39 | 11.25415 | 123.76026 | 18390 ft | 354 kts | 142° |
| 2026-05-05 14:39 | 11.23392 | 123.77516 | 17808 ft | 359 kts | 142° |
| 2026-05-05 14:40 | 11.21341 | 123.79025 | 17412 ft | 358 kts | 142° |
| 2026-05-05 14:40 | 11.19321 | 123.80512 | 17058 ft | 356 kts | 142° |
| 2026-05-05 14:40 | 11.17307 | 123.81993 | 16706 ft | 354 kts | 142° |
| 2026-05-05 14:40 | 11.15268 | 123.83390 | 16330 ft | 354 kts | 152° |
| 2026-05-05 14:41 | 11.12885 | 123.84018 | 15922 ft | 358 kts | 176° |
| 2026-05-05 14:41 | 11.10420 | 123.83669 | 15595 ft | 358 kts | 194° |
| 2026-05-05 14:41 | 11.08007 | 123.82966 | 15268 ft | 356 kts | 194° |
| 2026-05-05 14:41 | 11.05595 | 123.82265 | 14897 ft | 355 kts | 194° |
| 2026-05-05 14:42 | 11.03230 | 123.81587 | 14541 ft | 353 kts | 194° |
| 2026-05-05 14:42 | 11.00858 | 123.80914 | 14183 ft | 352 kts | 194° |
| 2026-05-05 14:42 | 10.98465 | 123.80241 | 13832 ft | 351 kts | 194° |
| 2026-05-05 14:42 | 10.96133 | 123.79588 | 13329 ft | 348 kts | 194° |
| 2026-05-05 14:43 | 10.93788 | 123.78931 | 12783 ft | 346 kts | 194° |
| 2026-05-05 14:43 | 10.91443 | 123.78275 | 12261 ft | 343 kts | 193° |
| 2026-05-05 14:43 | 10.89137 | 123.77631 | 11758 ft | 339 kts | 193° |
| 2026-05-05 14:43 | 10.86830 | 123.76987 | 11252 ft | 336 kts | 193° |
| 2026-05-05 14:44 | 10.84588 | 123.76360 | 10753 ft | 332 kts | 193° |
| 2026-05-05 14:44 | 10.82362 | 123.75738 | 10254 ft | 329 kts | 193° |
| 2026-05-05 14:44 | 10.80145 | 123.75120 | 9748 ft | 327 kts | 193° |
| 2026-05-05 14:44 | 10.77964 | 123.74513 | 9360 ft | 320 kts | 193° |
| 2026-05-05 14:45 | 10.75844 | 123.73921 | 9153 ft | 308 kts | 193° |
| 2026-05-05 14:45 | 10.73809 | 123.73354 | 8943 ft | 297 kts | 193° |
| 2026-05-05 14:45 | 10.71840 | 123.72805 | 8602 ft | 293 kts | 193° |
| 2026-05-05 14:45 | 10.69847 | 123.72250 | 8191 ft | 291 kts | 193° |
| 2026-05-05 14:46 | 10.67902 | 123.71709 | 7788 ft | 290 kts | 193° |
| 2026-05-05 14:46 | 10.65968 | 123.71171 | 7396 ft | 288 kts | 193° |
| 2026-05-05 14:46 | 10.63998 | 123.70623 | 6996 ft | 286 kts | 193° |
| 2026-05-05 14:46 | 10.62078 | 123.70087 | 6609 ft | 284 kts | 193° |
| 2026-05-05 14:47 | 10.60177 | 123.69557 | 6250 ft | 281 kts | 193° |
| 2026-05-05 14:47 | 10.58304 | 123.69035 | 6125 ft | 280 kts | 193° |
| 2026-05-05 14:47 | 10.56412 | 123.68509 | 6016 ft | 281 kts | 193° |
| 2026-05-05 14:47 | 10.54505 | 123.67979 | 5899 ft | 281 kts | 193° |
| 2026-05-05 14:48 | 10.52595 | 123.67448 | 5778 ft | 281 kts | 193° |
| 2026-05-05 14:48 | 10.50690 | 123.66919 | 5659 ft | 281 kts | 193° |
| 2026-05-05 14:48 | 10.48774 | 123.66385 | 5536 ft | 278 kts | 193° |
| 2026-05-05 14:48 | 10.46934 | 123.65871 | 5411 ft | 273 kts | 193° |
| 2026-05-05 14:49 | 10.45087 | 123.65356 | 5288 ft | 267 kts | 193° |
| 2026-05-05 14:49 | 10.43301 | 123.64859 | 5167 ft | 262 kts | 193° |
| 2026-05-05 14:49 | 10.41546 | 123.64370 | 5043 ft | 256 kts | 193° |
| 2026-05-05 14:49 | 10.39837 | 123.63894 | 4916 ft | 249 kts | 193° |
| 2026-05-05 14:50 | 10.38163 | 123.63428 | 4788 ft | 242 kts | 193° |
| 2026-05-05 14:50 | 10.36530 | 123.62976 | 4662 ft | 236 kts | 191° |
| 2026-05-05 14:50 | 10.34938 | 123.62894 | 4527 ft | 226 kts | 165° |
| 2026-05-05 14:50 | 10.33507 | 123.63469 | 4404 ft | 215 kts | 142° |
| 2026-05-05 14:51 | 10.32408 | 123.64455 | 4302 ft | 205 kts | 132° |
| 2026-05-05 14:51 | 10.31421 | 123.65484 | 4188 ft | 197 kts | 131° |
| 2026-05-05 14:51 | 10.30487 | 123.66464 | 4060 ft | 190 kts | 131° |
| 2026-05-05 14:51 | 10.29574 | 123.67415 | 3997 ft | 179 kts | 131° |
| 2026-05-05 14:52 | 10.28722 | 123.68293 | 3967 ft | 174 kts | 131° |
| 2026-05-05 14:52 | 10.27866 | 123.69172 | 3851 ft | 174 kts | 131° |
| 2026-05-05 14:52 | 10.27003 | 123.70055 | 3733 ft | 174 kts | 131° |
| 2026-05-05 14:52 | 10.26149 | 123.70926 | 3614 ft | 174 kts | 131° |
| 2026-05-05 14:53 | 10.25281 | 123.71809 | 3494 ft | 174 kts | 131° |
| 2026-05-05 14:53 | 10.24409 | 123.72695 | 3380 ft | 174 kts | 131° |
| 2026-05-05 14:53 | 10.23554 | 123.73567 | 3275 ft | 174 kts | 131° |
| 2026-05-05 14:53 | 10.22691 | 123.74445 | 3157 ft | 173 kts | 131° |
| 2026-05-05 14:54 | 10.21835 | 123.75314 | 3042 ft | 173 kts | 131° |
| 2026-05-05 14:54 | 10.20971 | 123.76193 | 3021 ft | 172 kts | 131° |
| 2026-05-05 14:54 | 10.20120 | 123.77058 | 3016 ft | 173 kts | 131° |
| 2026-05-05 14:54 | 10.19268 | 123.77923 | 3011 ft | 173 kts | 131° |
| 2026-05-05 14:55 | 10.18412 | 123.78792 | 3010 ft | 173 kts | 131° |
| 2026-05-05 14:55 | 10.17555 | 123.79662 | 3010 ft | 173 kts | 131° |
| 2026-05-05 14:55 | 10.16694 | 123.80536 | 3006 ft | 173 kts | 130° |
| 2026-05-05 14:55 | 10.16087 | 123.81546 | 3000 ft | 168 kts | 101° |
| 2026-05-05 14:56 | 10.16057 | 123.82701 | 2981 ft | 154 kts | 75° |
| 2026-05-05 14:56 | 10.16486 | 123.83630 | 2897 ft | 143 kts | 51° |
| 2026-05-05 14:56 | 10.17170 | 123.84364 | 2843 ft | 142 kts | 45° |
| 2026-05-05 14:56 | 10.17888 | 123.85069 | 2770 ft | 142 kts | 45° |
| 2026-05-05 14:57 | 10.18595 | 123.85763 | 2693 ft | 141 kts | 45° |
| 2026-05-05 14:57 | 10.19301 | 123.86462 | 2617 ft | 141 kts | 45° |
| 2026-05-05 14:57 | 10.20008 | 123.87164 | 2540 ft | 141 kts | 45° |
| 2026-05-05 14:57 | 10.20713 | 123.87869 | 2457 ft | 141 kts | 45° |
| 2026-05-05 14:58 | 10.21419 | 123.88575 | 2306 ft | 141 kts | 45° |
| 2026-05-05 14:58 | 10.22128 | 123.89287 | 2105 ft | 140 kts | 45° |
| 2026-05-05 14:58 | 10.22824 | 123.89984 | 1921 ft | 140 kts | 45° |
| 2026-05-05 14:58 | 10.23529 | 123.90690 | 1737 ft | 140 kts | 45° |
| 2026-05-05 14:59 | 10.24219 | 123.91382 | 1563 ft | 139 kts | 45° |
| 2026-05-05 14:59 | 10.24910 | 123.92075 | 1382 ft | 139 kts | 45° |
| 2026-05-05 14:59 | 10.25596 | 123.92764 | 1199 ft | 138 kts | 44° |
| 2026-05-05 14:59 | 10.26281 | 123.93452 | 1016 ft | 138 kts | 44° |
| 2026-05-05 15:00 | 10.26962 | 123.94135 | 832 ft | 138 kts | 44° |
| 2026-05-05 15:00 | 10.27421 | 123.94596 | 711 ft | 137 kts | 44° |
| 2026-05-05 15:00 | 10.28324 | 123.95503 | 465 ft | 137 kts | 44° |
| 2026-05-05 15:00 | 10.29005 | 123.96192 | 280 ft | 136 kts | 44° |
| 2026-05-05 15:01 | 10.29685 | 123.96860 | 99 ft | 136 kts | 44° |
| 2026-05-05 15:01 | 10.30316 | 123.97499 | 54 ft | 110 kts | 43° |
| 2026-05-05 15:01 | 10.30740 | 123.97923 | 54 ft | 62 kts | 45° |
| 2026-05-05 15:01 | 10.30997 | 123.98183 | 54 ft | 42 kts | 45° |
| 2026-05-05 15:02 | 10.31138 | 123.98290 | 54 ft | 13 kts | 27° |
| 2026-05-05 15:02 | 10.31211 | 123.98322 | 54 ft | 9 kts | 19° |
| 2026-05-05 15:02 | 10.31264 | 123.98339 | 54 ft | 6 kts | 17° |
| 2026-05-05 15:02 | 10.31302 | 123.98350 | 54 ft | 5 kts | 11° |
| 2026-05-05 15:03 | 10.31342 | 123.98349 | 54 ft | 2 kts | 345° |
| 2026-05-05 15:03 | 10.31368 | 123.98337 | 54 ft | 6 kts | 329° |
| 2026-05-05 15:03 | 10.31411 | 123.98300 | 54 ft | 9 kts | 317° |
| 2026-05-05 15:03 | 10.31468 | 123.98244 | 54 ft | 12 kts | 315° |
| 2026-05-05 15:04 | 10.31531 | 123.98180 | 54 ft | 12 kts | 313° |
| 2026-05-05 15:04 | 10.31559 | 123.98118 | 54 ft | 10 kts | 257° |
| 2026-05-05 15:04 | 10.31513 | 123.98055 | 54 ft | 11 kts | 225° |
| 2026-05-05 15:04 | 10.31454 | 123.97996 | 54 ft | 9 kts | 225° |
| 2026-05-05 15:05 | 10.31370 | 123.97903 | 54 ft | 6 kts | 256° |
| 2026-05-05 15:05 | 10.31378 | 123.97877 | 54 ft | 4 kts | 300° |
| 2026-05-05 15:05 | 10.31401 | 123.97848 | 54 ft | 2 kts | 311° |
| 2026-05-05 15:06 | 10.31405 | 123.97843 | 54 ft | 0 kts | 311° |